Time;durP1;ratioP1;P1;durP2;ratioP2;P2;SDS_P1;SDS_P2;PMS_P1;PMS_P2;Temp;Humidity;BMP_temperature;BMP_pressure;BME280_temperature;BME280_humidity;BME280_pressure;Samples;Min_cycle;Max_cycle;Signal;HPM_P1;HPM_P2
2023/07/27 00:00:29;;;;;;;7.10;3.43;;;11.00;99.90;;;;;;5028513;28;20191;-57
2023/07/27 00:02:54;;;;;;;4.60;3.60;;;11.00;99.90;;;;;;5036252;28;20233;-56
2023/07/27 00:05:20;;;;;;;4.10;3.27;;;11.00;99.90;;;;;;5038985;28;20253;-57
2023/07/27 00:07:46;;;;;;;6.90;3.80;;;11.00;99.90;;;;;;5038144;28;20175;-56
2023/07/27 00:10:11;;;;;;;4.47;3.50;;;10.90;99.90;;;;;;5041134;28;20606;-56
2023/07/27 00:12:37;;;;;;;7.10;3.80;;;10.90;99.90;;;;;;5044124;28;20589;-56
2023/07/27 00:15:03;;;;;;;4.03;3.37;;;10.80;99.90;;;;;;5038168;28;20186;-57
2023/07/27 00:17:28;;;;;;;5.20;3.70;;;10.80;99.90;;;;;;5038236;28;20236;-58
2023/07/27 00:19:54;;;;;;;4.87;3.20;;;10.80;99.90;;;;;;5039348;28;20242;-56
2023/07/27 00:22:20;;;;;;;3.90;3.50;;;10.80;99.90;;;;;;5034954;28;20175;-56
2023/07/27 00:24:45;;;;;;;3.53;3.20;;;10.70;99.90;;;;;;5034973;28;20422;-56
2023/07/27 00:27:11;;;;;;;3.63;3.17;;;10.60;99.90;;;;;;5034617;28;20820;-56
2023/07/27 00:29:36;;;;;;;4.20;3.00;;;10.60;99.90;;;;;;5039516;28;20202;-57
2023/07/27 00:32:02;;;;;;;5.97;3.27;;;10.60;99.90;;;;;;5042380;28;20172;-55
2023/07/27 00:34:27;;;;;;;4.40;3.70;;;10.50;99.90;;;;;;5041531;28;20597;-56
2023/07/27 00:36:53;;;;;;;5.53;3.20;;;10.50;99.90;;;;;;5034023;28;20212;-57
2023/07/27 00:39:19;;;;;;;3.57;2.70;;;10.40;99.90;;;;;;5032768;28;20763;-56
2023/07/27 00:41:44;;;;;;;4.43;3.43;;;10.40;99.90;;;;;;5027512;28;20199;-56
2023/07/27 00:44:10;;;;;;;4.07;3.00;;;10.40;99.90;;;;;;5032891;28;20198;-57
2023/07/27 00:46:36;;;;;;;4.80;3.60;;;10.40;99.90;;;;;;5036530;28;20233;-57
2023/07/27 00:49:05;;;;;;;4.07;3.20;;;10.40;99.90;;;;;;5040109;28;20224;-57
2023/07/27 00:51:36;;;;;;;3.87;3.10;;;10.30;99.90;;;;;;5037938;28;20427;-55
2023/07/27 00:54:03;;;;;;;6.70;3.37;;;10.30;99.90;;;;;;5035687;28;20424;-56
2023/07/27 00:56:30;;;;;;;5.47;3.30;;;10.30;99.90;;;;;;5037316;28;20823;-56
2023/07/27 00:58:59;;;;;;;6.53;3.50;;;10.30;99.90;;;;;;5037253;28;20442;-57
2023/07/27 01:01:25;;;;;;;4.80;3.13;;;10.30;99.90;;;;;;5033423;28;20445;-55
2023/07/27 01:03:51;;;;;;;6.90;3.47;;;10.30;99.90;;;;;;5042858;28;20952;-57
2023/07/27 01:06:17;;;;;;;4.07;3.40;;;10.30;99.90;;;;;;5041367;28;20426;-54
2023/07/27 01:08:43;;;;;;;5.17;3.00;;;10.30;99.90;;;;;;5038945;28;20446;-56
2023/07/27 01:11:14;;;;;;;3.60;3.10;;;10.30;99.90;;;;;;5041110;28;20238;-56
2023/07/27 01:14:07;;;;;;;3.87;3.10;;;10.20;99.90;;;;;;5031817;28;20449;-56
2023/07/27 01:16:46;;;;;;;3.30;3.00;;;10.30;99.90;;;;;;5040077;28;20450;-55
2023/07/27 01:19:44;;;;;;;4.23;3.30;;;10.20;99.90;;;;;;5036180;28;20449;-56
2023/07/27 01:22:36;;;;;;;3.90;3.50;;;10.20;99.90;;;;;;5035264;28;20939;-55
2023/07/27 01:25:06;;;;;;;5.67;2.93;;;10.30;99.90;;;;;;5033424;28;20807;-56
2023/07/27 01:28:11;;;;;;;10.77;4.10;;;10.30;99.90;;;;;;5028723;28;20927;-54
2023/07/27 01:30:57;;;;;;;4.53;3.50;;;10.30;99.90;;;;;;5038664;28;20942;-55
2023/07/27 01:33:32;;;;;;;5.90;3.60;;;10.30;99.90;;;;;;5038381;28;20797;-56
2023/07/27 01:36:20;;;;;;;4.00;3.40;;;10.30;99.90;;;;;;5037193;28;20465;-56
2023/07/27 01:38:48;;;;;;;4.77;3.40;;;10.30;99.90;;;;;;5033017;28;20469;-55
2023/07/27 01:41:15;;;;;;;5.87;3.20;;;10.20;99.90;;;;;;5036055;28;20521;-59
2023/07/27 01:43:43;;;;;;;5.03;3.20;;;10.20;99.90;;;;;;5040879;28;20430;-56
2023/07/27 01:46:10;;;;;;;6.10;3.70;;;10.20;99.90;;;;;;5040675;28;20480;-55
2023/07/27 01:48:41;;;;;;;7.73;3.80;;;10.20;99.90;;;;;;5045855;28;20445;-55
2023/07/27 01:51:10;;;;;;;3.40;3.10;;;10.20;99.90;;;;;;5042226;28;20449;-57
2023/07/27 01:53:37;;;;;;;3.80;3.40;;;10.10;99.90;;;;;;5033548;28;20457;-56
2023/07/27 01:56:04;;;;;;;4.90;3.50;;;10.10;99.90;;;;;;5034315;28;20527;-56
2023/07/27 01:58:31;;;;;;;3.30;3.00;;;10.10;99.90;;;;;;5038502;28;20442;-57
2023/07/27 02:00:58;;;;;;;3.40;3.00;;;10.00;99.90;;;;;;5039652;28;20831;-57
2023/07/27 02:03:25;;;;;;;4.27;3.10;;;10.00;99.90;;;;;;5038505;28;20456;-57
2023/07/27 02:05:51;;;;;;;9.03;3.90;;;9.90;99.90;;;;;;5031868;28;20823;-57
2023/07/27 02:08:17;;;;;;;2.90;2.60;;;9.90;99.90;;;;;;5040227;28;20430;-57
2023/07/27 02:10:54;;;;;;;5.80;3.67;;;9.90;99.90;;;;;;5046445;28;20183;-56
2023/07/27 02:13:27;;;;;;;5.00;3.23;;;9.90;99.90;;;;;;5044584;28;20670;-55
2023/07/27 02:16:09;;;;;;;6.97;3.43;;;9.80;99.90;;;;;;5034025;28;20466;-56
2023/07/27 02:18:37;;;;;;;5.77;3.33;;;9.80;99.90;;;;;;5037123;28;20957;-57
2023/07/27 02:21:07;;;;;;;4.63;3.53;;;9.80;99.90;;;;;;5037146;28;20831;-56
2023/07/27 02:23:34;;;;;;;7.50;3.90;;;9.80;99.90;;;;;;5037807;28;20441;-56
2023/07/27 02:25:59;;;;;;;4.57;3.40;;;9.80;99.90;;;;;;5036204;28;20442;-56
2023/07/27 02:28:28;;;;;;;4.97;3.40;;;9.80;99.90;;;;;;5036738;28;20437;-56
2023/07/27 02:30:55;;;;;;;6.17;3.90;;;9.80;99.90;;;;;;5028161;28;20183;-57
2023/07/27 02:33:20;;;;;;;4.97;3.57;;;9.80;99.90;;;;;;5033963;28;20476;-56
2023/07/27 02:35:46;;;;;;;4.23;3.80;;;9.80;99.90;;;;;;5034418;28;20998;-55
2023/07/27 02:38:11;;;;;;;6.57;4.50;;;9.90;99.90;;;;;;5032829;28;20203;-57
2023/07/27 02:40:37;;;;;;;4.37;3.40;;;9.90;99.90;;;;;;5038224;28;20202;-57
2023/07/27 02:43:03;;;;;;;4.80;3.67;;;9.90;99.90;;;;;;5040842;28;20570;-57
2023/07/27 02:45:32;;;;;;;5.73;3.57;;;9.90;99.90;;;;;;5043777;28;20240;-56
2023/07/27 02:47:58;;;;;;;5.80;4.10;;;9.90;99.90;;;;;;5040018;28;20429;-57
2023/07/27 02:50:23;;;;;;;5.00;3.50;;;10.00;99.90;;;;;;5040852;28;20988;-57
2023/07/27 02:52:49;;;;;;;8.37;3.77;;;10.00;99.90;;;;;;5037772;28;20187;-59
2023/07/27 02:55:14;;;;;;;5.20;3.70;;;10.10;99.90;;;;;;5037520;28;20287;-57
2023/07/27 02:57:40;;;;;;;4.90;4.30;;;10.10;99.90;;;;;;5041659;28;20577;-56
2023/07/27 03:00:08;;;;;;;5.73;3.30;;;10.10;99.90;;;;;;5030463;28;20195;-57
2023/07/27 03:02:33;;;;;;;5.40;3.67;;;10.00;99.90;;;;;;5038794;28;20180;-56
2023/07/27 03:05:01;;;;;;;4.93;4.27;;;10.00;99.90;;;;;;5042572;28;20428;-57
2023/07/27 03:07:26;;;;;;;5.90;3.93;;;10.10;99.90;;;;;;5042148;28;20320;-57
2023/07/27 03:09:52;;;;;;;4.63;3.60;;;10.10;99.90;;;;;;5036396;28;20565;-56
2023/07/27 03:12:17;;;;;;;5.90;3.77;;;10.10;99.90;;;;;;5035739;28;20174;-57
2023/07/27 03:14:43;;;;;;;8.43;3.60;;;10.10;99.90;;;;;;5041527;28;20183;-58
2023/07/27 03:17:08;;;;;;;4.47;3.57;;;10.20;99.90;;;;;;5040234;28;20219;-56
2023/07/27 03:19:34;;;;;;;5.23;3.27;;;10.20;99.90;;;;;;5041796;28;20195;-57
2023/07/27 03:22:00;;;;;;;5.77;3.67;;;10.20;99.90;;;;;;5037859;28;20380;-57
2023/07/27 03:24:26;;;;;;;7.10;3.23;;;10.10;99.90;;;;;;5038716;28;20189;-58
2023/07/27 03:26:52;;;;;;;6.80;3.50;;;10.10;99.90;;;;;;5038461;28;20233;-57
2023/07/27 03:29:18;;;;;;;4.53;3.77;;;10.10;99.90;;;;;;5040403;28;20617;-57
2023/07/27 03:31:43;;;;;;;8.90;3.20;;;10.10;99.90;;;;;;5024657;28;20563;-57
2023/07/27 03:34:09;;;;;;;8.10;4.10;;;10.00;99.90;;;;;;5029376;28;20187;-57
2023/07/27 03:36:35;;;;;;;8.20;3.70;;;10.00;99.90;;;;;;5029849;28;20201;-56
2023/07/27 03:39:00;;;;;;;5.33;3.87;;;10.00;99.90;;;;;;5029271;28;20297;-57
2023/07/27 03:41:26;;;;;;;4.43;3.43;;;10.00;99.90;;;;;;5033489;28;20214;-57
2023/07/27 03:43:52;;;;;;;4.43;3.27;;;9.90;99.90;;;;;;5024822;28;20172;-57
2023/07/27 03:46:17;;;;;;;5.50;4.30;;;9.90;99.90;;;;;;5030804;28;20249;-58
2023/07/27 03:48:45;;;;;;;5.40;3.80;;;9.90;99.90;;;;;;5030635;28;20271;-56
2023/07/27 03:51:11;;;;;;;5.20;3.70;;;9.90;99.90;;;;;;5040442;28;20568;-56
2023/07/27 03:53:38;;;;;;;8.60;4.10;;;9.90;99.90;;;;;;5037917;28;20430;-57
2023/07/27 03:56:04;;;;;;;4.57;3.73;;;10.00;99.90;;;;;;5031188;28;20768;-51
2023/07/27 03:58:30;;;;;;;7.90;3.60;;;10.00;99.90;;;;;;5031569;28;20969;-56
2023/07/27 04:00:56;;;;;;;4.40;3.70;;;10.00;99.90;;;;;;5025499;28;20520;-56
2023/07/27 04:03:22;;;;;;;4.43;3.77;;;10.00;99.90;;;;;;5030857;28;20597;-56
2023/07/27 04:05:47;;;;;;;6.20;4.07;;;10.00;99.90;;;;;;5027210;28;20673;-56
2023/07/27 04:08:13;;;;;;;4.23;3.23;;;10.00;99.90;;;;;;5038404;28;20219;-56
2023/07/27 04:10:42;;;;;;;4.00;3.60;;;10.00;99.90;;;;;;5029550;28;20202;-55
2023/07/27 04:13:07;;;;;;;10.83;3.70;;;10.00;99.90;;;;;;5029923;28;20266;-55
2023/07/27 04:15:33;;;;;;;8.37;4.30;;;10.00;99.90;;;;;;5032334;28;20553;-55
2023/07/27 04:17:59;;;;;;;4.47;3.77;;;10.10;99.90;;;;;;5041015;28;20317;-55
2023/07/27 04:20:25;;;;;;;6.93;4.40;;;10.10;99.90;;;;;;5034921;28;21169;-55
2023/07/27 04:22:50;;;;;;;7.23;4.13;;;10.20;99.90;;;;;;5033846;28;20180;-56
2023/07/27 04:25:16;;;;;;;6.13;3.63;;;10.20;99.90;;;;;;5038016;28;20187;-55
2023/07/27 04:27:41;;;;;;;5.70;3.53;;;10.20;99.90;;;;;;5034633;28;20180;-55
2023/07/27 04:30:07;;;;;;;6.97;4.50;;;10.30;99.90;;;;;;5041337;28;20208;-54
2023/07/27 04:32:33;;;;;;;6.43;4.10;;;10.30;99.90;;;;;;5034620;28;20262;-54
2023/07/27 04:34:58;;;;;;;7.07;3.80;;;10.30;99.90;;;;;;5029699;28;20511;-56
2023/07/27 04:37:24;;;;;;;4.63;4.13;;;10.30;99.90;;;;;;5032254;28;20171;-54
2023/07/27 04:39:49;;;;;;;5.50;3.80;;;10.40;99.90;;;;;;5035079;28;20606;-56
2023/07/27 04:42:15;;;;;;;5.17;3.57;;;10.40;99.90;;;;;;5033626;28;20170;-56
2023/07/27 04:44:41;;;;;;;4.67;3.60;;;10.50;99.90;;;;;;5035560;28;20179;-55
2023/07/27 04:47:06;;;;;;;4.63;3.60;;;10.50;99.90;;;;;;5038486;28;20176;-55
2023/07/27 04:49:32;;;;;;;6.27;4.40;;;10.50;99.90;;;;;;5044527;28;20242;-55
2023/07/27 04:51:57;;;;;;;5.73;3.83;;;10.60;99.90;;;;;;5045597;28;20186;-56
2023/07/27 04:54:23;;;;;;;6.33;3.93;;;10.70;99.90;;;;;;5045319;28;20606;-55
2023/07/27 04:56:48;;;;;;;7.80;3.77;;;10.70;99.90;;;;;;5035742;28;20215;-56
2023/07/27 04:59:14;;;;;;;3.93;3.53;;;10.70;99.90;;;;;;5044344;28;20585;-55
2023/07/27 05:01:40;;;;;;;4.67;4.20;;;10.70;99.90;;;;;;5048484;28;20648;-56
2023/07/27 05:04:05;;;;;;;7.40;4.37;;;10.80;99.90;;;;;;5044259;28;20175;-53
2023/07/27 05:06:31;;;;;;;5.40;4.53;;;10.80;99.90;;;;;;5036424;28;20644;-53
2023/07/27 05:08:56;;;;;;;4.43;4.03;;;10.90;99.90;;;;;;5042435;28;20195;-56
2023/07/27 05:11:22;;;;;;;14.43;5.57;;;10.90;99.90;;;;;;5037529;28;20706;-56
2023/07/27 05:13:50;;;;;;;5.00;4.23;;;10.90;99.90;;;;;;5036327;28;20183;-54
2023/07/27 05:16:15;;;;;;;10.07;5.20;;;10.80;99.90;;;;;;5042084;28;20202;-55
2023/07/27 05:18:41;;;;;;;6.60;4.90;;;10.80;99.90;;;;;;5044993;28;20449;-54
2023/07/27 05:21:06;;;;;;;8.10;5.40;;;10.90;99.90;;;;;;5041034;28;20649;-54
2023/07/27 05:23:32;;;;;;;10.57;6.00;;;10.90;99.90;;;;;;5041844;28;20179;-56
2023/07/27 05:25:57;;;;;;;8.50;4.97;;;11.00;99.90;;;;;;5038260;28;20271;-53
2023/07/27 05:28:25;;;;;;;12.80;5.40;;;11.00;99.90;;;;;;5034855;28;20183;-54
2023/07/27 05:30:50;;;;;;;35.77;5.20;;;11.10;99.90;;;;;;5033572;28;20188;-56
2023/07/27 05:33:16;;;;;;;8.50;4.73;;;11.20;99.90;;;;;;5041423;28;20441;-54
2023/07/27 05:35:46;;;;;;;8.63;4.83;;;11.20;99.90;;;;;;5040371;28;20210;-57
2023/07/27 05:38:11;;;;;;;5.83;3.97;;;11.30;99.90;;;;;;5034058;28;20191;-55
2023/07/27 05:40:37;;;;;;;9.53;5.20;;;11.40;99.90;;;;;;5038415;28;20418;-55
2023/07/27 05:43:03;;;;;;;5.37;4.70;;;11.40;99.90;;;;;;5035035;28;20184;-54
2023/07/27 05:45:28;;;;;;;11.47;5.60;;;11.50;99.90;;;;;;5038268;28;20186;-55
2023/07/27 05:47:54;;;;;;;9.13;5.67;;;11.50;99.90;;;;;;5034786;28;20233;-54
2023/07/27 05:50:19;;;;;;;11.17;5.73;;;11.60;99.90;;;;;;5040214;28;20198;-55
2023/07/27 05:52:45;;;;;;;10.70;5.20;;;11.60;99.90;;;;;;5036984;28;20183;-55
2023/07/27 05:55:10;;;;;;;12.43;5.43;;;11.60;99.90;;;;;;5043584;28;20196;-54
2023/07/27 05:57:36;;;;;;;7.17;4.93;;;11.70;99.90;;;;;;5044774;28;20177;-55
2023/07/27 06:00:02;;;;;;;8.80;5.63;;;11.70;99.90;;;;;;5037828;28;20695;-55
2023/07/27 06:02:28;;;;;;;10.13;5.03;;;11.70;99.90;;;;;;5031867;28;20175;-56
2023/07/27 06:04:53;;;;;;;6.43;4.90;;;11.80;99.90;;;;;;5042639;28;20175;-55
2023/07/27 06:07:19;;;;;;;13.20;5.07;;;11.70;99.90;;;;;;5043292;28;20439;-54
2023/07/27 06:09:45;;;;;;;9.87;5.63;;;11.70;99.90;;;;;;5033299;28;20203;-55
2023/07/27 06:12:13;;;;;;;13.87;5.10;;;11.70;99.90;;;;;;5019947;28;20648;-55
2023/07/27 06:14:39;;;;;;;6.20;4.30;;;11.70;99.90;;;;;;5028274;28;20191;-56
2023/07/27 06:17:06;;;;;;;5.73;4.43;;;11.80;99.90;;;;;;5026450;28;20466;-56
2023/07/27 06:19:31;;;;;;;7.93;5.50;;;11.80;99.90;;;;;;5031335;28;20532;-55
2023/07/27 06:21:57;;;;;;;4.50;3.97;;;11.80;99.90;;;;;;5038970;28;20529;-56
2023/07/27 06:24:22;;;;;;;7.60;4.43;;;11.90;99.90;;;;;;5037567;28;20706;-54
2023/07/27 06:26:48;;;;;;;6.13;4.20;;;11.90;99.90;;;;;;5041787;28;20221;-56
2023/07/27 06:29:14;;;;;;;5.40;4.60;;;12.00;99.90;;;;;;5045697;28;20290;-56
2023/07/27 06:31:39;;;;;;;6.13;4.80;;;12.00;99.90;;;;;;5033135;28;20183;-57
2023/07/27 06:34:05;;;;;;;8.63;4.73;;;12.10;99.90;;;;;;5033682;28;20189;-56
2023/07/27 06:36:30;;;;;;;6.80;5.00;;;12.10;99.90;;;;;;5038571;28;20690;-56
2023/07/27 06:38:56;;;;;;;7.97;4.87;;;12.20;99.90;;;;;;5032517;28;20222;-58
2023/07/27 06:41:25;;;;;;;8.97;4.93;;;12.20;99.90;;;;;;5036067;28;20190;-58
2023/07/27 06:43:51;;;;;;;6.00;4.73;;;12.30;99.90;;;;;;5034145;28;20180;-57
2023/07/27 06:46:18;;;;;;;10.73;5.27;;;12.30;99.90;;;;;;5043286;28;20434;-57
2023/07/27 06:48:46;;;;;;;13.90;5.97;;;12.40;99.90;;;;;;5023561;28;20549;-54
2023/07/27 06:51:11;;;;;;;9.13;5.20;;;12.40;99.90;;;;;;5034030;28;20938;-57
2023/07/27 06:53:37;;;;;;;8.20;5.00;;;12.50;99.90;;;;;;5034281;28;20433;-56
2023/07/27 06:56:04;;;;;;;11.90;5.33;;;12.50;99.90;;;;;;5037408;28;20215;-56
2023/07/27 06:58:30;;;;;;;12.83;4.90;;;12.60;99.90;;;;;;5037516;28;20171;-57
2023/07/27 07:00:56;;;;;;;8.00;4.77;;;12.60;99.90;;;;;;5029219;28;20981;-57
2023/07/27 07:03:21;;;;;;;5.17;4.33;;;12.60;99.90;;;;;;5028995;28;20469;-56
2023/07/27 07:05:47;;;;;;;8.63;4.50;;;12.60;99.90;;;;;;5034183;28;20218;-55
2023/07/27 07:08:13;;;;;;;8.00;4.70;;;12.70;99.90;;;;;;5036298;28;20182;-58
2023/07/27 07:10:38;;;;;;;8.53;5.63;;;12.70;99.90;;;;;;5033053;28;20222;-56
2023/07/27 07:13:04;;;;;;;9.63;4.80;;;12.80;99.90;;;;;;5041363;28;20198;-57
2023/07/27 07:15:30;;;;;;;9.30;4.93;;;12.80;99.90;;;;;;5042852;28;20207;-56
2023/07/27 07:17:55;;;;;;;6.40;4.90;;;12.80;99.90;;;;;;5034392;28;20184;-58
2023/07/27 07:20:21;;;;;;;6.90;4.37;;;12.90;99.90;;;;;;5037287;28;20742;-58
2023/07/27 07:22:46;;;;;;;7.90;4.80;;;12.90;99.90;;;;;;5028658;28;20182;-57
2023/07/27 07:25:12;;;;;;;6.57;4.70;;;12.90;99.90;;;;;;5038574;28;20664;-57
2023/07/27 07:27:38;;;;;;;10.03;4.70;;;12.90;99.90;;;;;;5034670;28;20248;-57
2023/07/27 07:30:04;;;;;;;5.67;5.10;;;13.00;99.90;;;;;;5037568;28;20828;-58
2023/07/27 07:32:31;;;;;;;17.70;5.90;;;13.00;99.90;;;;;;5031116;28;20176;-59
2023/07/27 07:34:57;;;;;;;9.43;6.50;;;13.10;99.90;;;;;;5039402;28;20527;-58
2023/07/27 07:37:23;;;;;;;11.57;7.50;;;13.10;99.90;;;;;;5038238;28;20453;-56
2023/07/27 07:39:48;;;;;;;11.97;7.13;;;13.10;99.90;;;;;;5033969;28;20522;-55
2023/07/27 07:42:14;;;;;;;11.80;7.50;;;13.30;99.90;;;;;;5026443;28;20247;-54
2023/07/27 07:44:40;;;;;;;12.73;7.20;;;13.30;99.90;;;;;;5022518;28;20180;-55
2023/07/27 07:47:05;;;;;;;10.67;6.93;;;13.30;99.90;;;;;;5033470;28;20191;-55
2023/07/27 07:49:31;;;;;;;13.83;7.30;;;13.30;99.90;;;;;;5039560;28;20234;-58
2023/07/27 07:51:57;;;;;;;12.23;7.47;;;13.40;99.90;;;;;;5038751;28;20292;-56
2023/07/27 07:54:22;;;;;;;16.60;8.63;;;13.40;99.90;;;;;;5023138;28;20192;-59
2023/07/27 07:56:48;;;;;;;11.50;7.63;;;13.50;99.90;;;;;;5030097;28;20207;-54
2023/07/27 07:59:15;;;;;;;13.30;7.63;;;13.50;99.90;;;;;;5033191;28;20217;-57
2023/07/27 08:01:41;;;;;;;11.83;6.13;;;13.60;99.90;;;;;;5033873;28;20178;-55
2023/07/27 08:04:07;;;;;;;10.93;6.67;;;13.70;99.90;;;;;;5034278;28;20832;-57
2023/07/27 08:06:33;;;;;;;11.17;7.03;;;13.80;99.90;;;;;;5035886;28;20433;-56
2023/07/27 08:08:59;;;;;;;14.70;7.40;;;13.80;99.90;;;;;;5030275;28;20454;-56
2023/07/27 08:11:24;;;;;;;11.43;7.43;;;13.90;99.90;;;;;;5030573;28;21903;-56
2023/07/27 08:13:50;;;;;;;8.80;5.67;;;13.90;99.90;;;;;;5032877;28;20180;-56
2023/07/27 08:16:16;;;;;;;8.57;4.00;;;14.00;99.90;;;;;;5033663;28;20198;-56
2023/07/27 08:18:41;;;;;;;4.53;3.40;;;14.00;99.90;;;;;;5033333;28;20196;-56
2023/07/27 08:21:08;;;;;;;3.90;3.27;;;14.10;99.90;;;;;;5031125;28;20184;-54
2023/07/27 08:23:34;;;;;;;6.63;3.53;;;14.10;99.90;;;;;;5040007;28;20187;-56
2023/07/27 08:26:01;;;;;;;5.67;3.60;;;14.20;99.90;;;;;;5044417;28;20429;-56
2023/07/27 08:28:27;;;;;;;3.93;3.07;;;14.20;99.90;;;;;;5035652;28;20175;-55
2023/07/27 08:30:53;;;;;;;4.93;2.90;;;14.20;99.90;;;;;;5040153;28;20923;-56
2023/07/27 08:33:19;;;;;;;5.70;3.80;;;14.30;99.90;;;;;;5037650;28;20472;-56
2023/07/27 08:35:46;;;;;;;6.60;3.30;;;14.40;99.90;;;;;;5033220;28;20494;-57
2023/07/27 08:38:12;;;;;;;7.50;4.70;;;14.40;99.90;;;;;;5039499;28;20227;-57
2023/07/27 08:40:37;;;;;;;4.73;3.57;;;14.50;99.90;;;;;;5042096;28;20498;-56
2023/07/27 08:43:05;;;;;;;6.63;4.13;;;14.60;99.90;;;;;;5033435;28;20183;-56
2023/07/27 08:45:30;;;;;;;5.30;3.30;;;14.70;99.90;;;;;;5039402;28;20591;-56
2023/07/27 08:47:58;;;;;;;5.10;3.30;;;14.80;99.90;;;;;;5041269;28;20836;-57
2023/07/27 08:50:23;;;;;;;4.90;3.97;;;14.90;99.90;;;;;;5036928;28;20203;-56
2023/07/27 08:52:49;;;;;;;10.53;3.77;;;14.90;99.90;;;;;;5044784;28;20498;-56
2023/07/27 08:55:15;;;;;;;10.27;3.70;;;14.90;99.90;;;;;;5032547;28;20186;-56
2023/07/27 08:57:41;;;;;;;4.70;3.47;;;14.90;99.90;;;;;;5034362;28;20484;-57
2023/07/27 09:00:09;;;;;;;5.63;3.23;;;15.10;99.90;;;;;;5042561;28;20202;-56
2023/07/27 09:02:35;;;;;;;5.40;3.50;;;15.10;99.90;;;;;;5037489;28;20429;-55
2023/07/27 09:05:01;;;;;;;9.67;4.23;;;15.10;99.90;;;;;;5038432;28;20429;-56
2023/07/27 09:07:27;;;;;;;5.43;3.40;;;15.10;99.90;;;;;;5033363;28;20179;-56
2023/07/27 09:09:53;;;;;;;4.37;3.80;;;15.20;99.90;;;;;;5033447;28;20202;-57
2023/07/27 09:12:21;;;;;;;4.63;3.60;;;15.20;99.90;;;;;;5033959;28;20217;-57
2023/07/27 09:14:47;;;;;;;6.20;3.93;;;15.30;99.90;;;;;;5041046;28;20483;-56
2023/07/27 09:17:13;;;;;;;6.40;3.77;;;15.40;99.90;;;;;;5032628;28;20871;-56
2023/07/27 09:19:41;;;;;;;8.67;3.60;;;15.50;99.90;;;;;;5033014;28;20460;-52
2023/07/27 09:22:07;;;;;;;4.30;3.30;;;15.50;99.90;;;;;;5025991;28;20225;-56
2023/07/27 09:24:34;;;;;;;10.47;3.33;;;15.60;99.90;;;;;;5039780;28;20903;-56
2023/07/27 09:27:01;;;;;;;5.70;3.70;;;15.70;99.90;;;;;;5039400;28;20181;-54
2023/07/27 09:29:28;;;;;;;4.80;3.57;;;15.70;99.90;;;;;;5035423;28;20507;-58
2023/07/27 09:31:58;;;;;;;4.70;3.80;;;15.80;99.90;;;;;;5031848;28;20438;-56
2023/07/27 09:34:28;;;;;;;5.53;3.83;;;15.90;99.90;;;;;;5028817;28;20489;-57
2023/07/27 09:36:54;;;;;;;6.03;4.20;;;15.90;99.30;;;;;;5034198;28;20455;-58
2023/07/27 09:39:20;;;;;;;3.20;2.90;;;16.00;99.00;;;;;;5028876;28;20493;-58
2023/07/27 09:41:46;;;;;;;7.53;3.27;;;16.10;97.70;;;;;;5032560;28;20469;-58
2023/07/27 09:44:14;;;;;;;4.23;3.37;;;16.10;97.40;;;;;;5035294;28;20641;-57
2023/07/27 09:46:41;;;;;;;4.00;3.60;;;16.20;96.30;;;;;;5034054;28;20469;-58
2023/07/27 09:49:07;;;;;;;5.63;3.67;;;16.30;97.10;;;;;;5034568;28;20532;-57
2023/07/27 09:51:33;;;;;;;3.90;2.90;;;16.30;96.80;;;;;;5035240;28;20540;-57
2023/07/27 09:54:00;;;;;;;4.60;3.33;;;16.40;95.20;;;;;;5025143;28;20186;-58
2023/07/27 09:56:27;;;;;;;4.73;3.13;;;16.40;94.80;;;;;;5022805;28;20469;-58
2023/07/27 09:58:53;;;;;;;4.80;3.30;;;16.50;94.60;;;;;;5024798;28;20450;-57
2023/07/27 10:01:19;;;;;;;3.50;3.10;;;16.50;93.40;;;;;;5024277;28;20422;-58
2023/07/27 10:03:45;;;;;;;7.50;3.30;;;16.60;93.30;;;;;;5029402;28;21646;-59
2023/07/27 10:06:14;;;;;;;4.47;3.50;;;16.70;93.10;;;;;;5033932;28;20723;-59
2023/07/27 10:08:40;;;;;;;9.50;3.10;;;16.80;92.20;;;;;;5028433;28;20457;-59
2023/07/27 10:11:06;;;;;;;8.10;3.67;;;16.90;92.70;;;;;;5031471;28;20491;-59
2023/07/27 10:13:37;;;;;;;6.37;2.90;;;17.00;93.20;;;;;;5030601;28;20453;-60
2023/07/27 10:16:08;;;;;;;4.80;3.70;;;17.10;92.30;;;;;;5033225;28;20200;-57
2023/07/27 10:18:39;;;;;;;7.33;3.70;;;17.20;91.50;;;;;;5025837;28;21140;-59
2023/07/27 10:21:33;;;;;;;4.87;3.80;;;17.30;90.20;;;;;;5023158;28;20551;-55
2023/07/27 10:23:59;;;;;;;9.20;3.80;;;17.40;88.90;;;;;;5022219;28;21433;-59
2023/07/27 10:26:52;;;;;;;4.00;3.47;;;17.40;87.10;;;;;;5030973;28;22054;-59
2023/07/27 10:29:22;;;;;;;4.00;3.40;;;17.40;83.60;;;;;;5035937;28;20461;-59
2023/07/27 10:32:02;;;;;;;3.73;3.33;;;17.40;84.70;;;;;;5032195;28;20426;-59
2023/07/27 10:34:28;;;;;;;6.03;3.60;;;17.50;87.90;;;;;;5037316;28;20437;-59
2023/07/27 10:37:01;;;;;;;6.67;3.50;;;17.50;85.20;;;;;;5028828;28;20517;-59
2023/07/27 10:39:35;;;;;;;5.80;3.87;;;17.50;85.00;;;;;;5037596;28;20857;-58
2023/07/27 10:42:12;;;;;;;5.93;3.43;;;17.50;85.60;;;;;;5039567;28;20523;-58
2023/07/27 10:44:47;;;;;;;3.67;3.30;;;17.50;84.80;;;;;;5036908;28;20464;-59
2023/07/27 10:47:24;;;;;;;4.03;3.27;;;17.50;84.90;;;;;;5035605;28;20484;-59
2023/07/27 10:49:52;;;;;;;4.03;3.57;;;17.40;83.70;;;;;;5039695;28;20487;-59
2023/07/27 10:52:28;;;;;;;6.60;4.00;;;17.40;84.70;;;;;;5038358;28;20937;-59
2023/07/27 10:54:59;;;;;;;6.90;4.10;;;17.40;85.60;;;;;;5038625;28;21126;-60
2023/07/27 10:57:27;;;;;;;8.03;3.97;;;17.40;86.60;;;;;;5046504;28;20565;-57
2023/07/27 10:59:53;;;;;;;9.93;3.80;;;17.40;88.40;;;;;;5040381;28;20461;-58
2023/07/27 11:02:23;;;;;;;7.00;4.03;;;17.50;90.00;;;;;;5035987;28;20426;-58
2023/07/27 11:04:53;;;;;;;5.70;3.73;;;17.60;90.20;;;;;;5033428;28;20510;-58
2023/07/27 11:07:29;;;;;;;7.17;3.40;;;17.70;83.10;;;;;;5038073;28;20433;-59
2023/07/27 11:09:55;;;;;;;4.60;4.07;;;17.80;84.10;;;;;;5045052;28;20453;-58
2023/07/27 11:12:22;;;;;;;6.87;4.80;;;17.80;84.80;;;;;;5045011;28;20432;-59
2023/07/27 11:14:47;;;;;;;4.40;3.60;;;17.90;83.50;;;;;;5036523;28;20512;-58
2023/07/27 11:17:13;;;;;;;4.43;3.27;;;18.00;82.80;;;;;;5029289;28;21372;-60
2023/07/27 11:19:39;;;;;;;6.20;3.93;;;18.10;82.70;;;;;;5034073;28;20207;-59
2023/07/27 11:22:05;;;;;;;4.57;3.30;;;18.20;83.40;;;;;;5039788;28;21643;-59
2023/07/27 11:24:32;;;;;;;6.77;4.10;;;18.30;83.10;;;;;;5037556;28;20186;-59
2023/07/27 11:26:58;;;;;;;3.87;3.10;;;18.40;80.90;;;;;;5029966;28;20506;-59
2023/07/27 11:29:24;;;;;;;10.60;4.27;;;18.50;81.30;;;;;;5040070;28;20551;-60
2023/07/27 11:31:53;;;;;;;6.00;3.47;;;18.50;81.70;;;;;;5049134;28;20930;-58
2023/07/27 11:34:22;;;;;;;5.47;3.47;;;18.60;81.70;;;;;;5040361;28;20190;-59
2023/07/27 11:36:52;;;;;;;5.07;3.13;;;18.70;75.90;;;;;;5034152;28;20473;-59
2023/07/27 11:39:17;;;;;;;3.60;3.00;;;18.80;72.10;;;;;;5022370;28;20476;-59
2023/07/27 11:41:43;;;;;;;5.50;3.40;;;18.90;73.20;;;;;;5023299;28;20962;-56
2023/07/27 11:44:08;;;;;;;5.23;2.77;;;19.00;71.90;;;;;;5030660;28;20299;-58
2023/07/27 11:46:49;;;;;;;4.77;3.00;;;19.10;70.80;;;;;;5034034;28;20183;-59
2023/07/27 11:49:16;;;;;;;6.20;3.70;;;19.10;68.50;;;;;;5034167;28;20261;-60
2023/07/27 11:51:43;;;;;;;5.57;3.00;;;19.10;67.40;;;;;;5038140;28;20525;-58
2023/07/27 11:54:09;;;;;;;3.20;2.90;;;19.10;67.20;;;;;;5039011;28;20436;-60
2023/07/27 11:56:38;;;;;;;10.07;3.50;;;19.00;69.30;;;;;;5031742;28;20461;-60
2023/07/27 11:59:06;;;;;;;3.80;3.10;;;19.00;70.50;;;;;;5034549;28;20202;-59
2023/07/27 12:01:36;;;;;;;5.23;3.27;;;19.10;68.70;;;;;;5041750;28;20421;-59
2023/07/27 12:04:05;;;;;;;4.73;3.13;;;19.10;68.70;;;;;;5034545;28;20520;-57
2023/07/27 12:06:31;;;;;;;6.53;2.43;;;19.30;68.40;;;;;;5034722;28;20441;-60
2023/07/27 12:08:57;;;;;;;3.43;2.70;;;19.40;67.00;;;;;;5037043;28;20526;-58
2023/07/27 12:11:27;;;;;;;4.07;3.03;;;19.50;65.80;;;;;;5041562;28;20217;-57
2023/07/27 12:13:52;;;;;;;4.80;3.00;;;19.60;64.60;;;;;;5037906;28;20187;-57
2023/07/27 12:16:18;;;;;;;7.10;3.03;;;19.60;63.90;;;;;;5033760;28;20457;-56
2023/07/27 12:18:45;;;;;;;4.90;3.33;;;19.60;64.30;;;;;;5038913;28;20248;-57
2023/07/27 12:21:11;;;;;;;6.33;3.27;;;19.60;63.70;;;;;;5041056;28;20175;-58
2023/07/27 12:23:37;;;;;;;3.50;3.03;;;19.70;64.70;;;;;;5037431;28;20525;-58
2023/07/27 12:26:03;;;;;;;2.90;2.60;;;19.80;64.40;;;;;;5022208;28;20449;-56
2023/07/27 12:28:31;;;;;;;4.97;3.03;;;19.90;63.60;;;;;;5030636;28;20516;-57
2023/07/27 12:30:57;;;;;;;3.50;2.93;;;20.00;63.00;;;;;;5029855;28;20438;-57
2023/07/27 12:33:26;;;;;;;4.23;2.90;;;20.10;62.70;;;;;;5033690;28;20611;-58
2023/07/27 12:35:52;;;;;;;3.50;3.20;;;20.20;62.70;;;;;;5030875;28;20465;-58
2023/07/27 12:38:18;;;;;;;4.80;3.03;;;20.20;61.80;;;;;;5042610;28;21081;-56
2023/07/27 12:40:44;;;;;;;4.63;2.90;;;20.40;61.90;;;;;;5036502;28;20465;-56
2023/07/27 12:43:10;;;;;;;4.70;2.53;;;20.60;61.90;;;;;;5028287;28;20521;-57
2023/07/27 12:45:37;;;;;;;3.17;2.80;;;20.70;61.30;;;;;;5025321;28;20314;-57